Time;durP1;ratioP1;P1;durP2;ratioP2;P2;SDS_P1;SDS_P2;PMS_P1;PMS_P2;Temp;Humidity;BMP_temperature;BMP_pressure;BME280_temperature;BME280_humidity;BME280_pressure;Samples;Min_cycle;Max_cycle;Signal;HPM_P1;HPM_P2
2022/08/25 00:00:19;;;;;;;0.00;0.00;;;18.80;99.90;17.90;97574.00;;;;5037984;28;20198;-72
2022/08/25 00:02:48;;;;;;;0.00;0.00;;;18.80;99.90;18.00;97587.00;;;;5036272;28;20265;-72
2022/08/25 00:05:26;;;;;;;0.00;0.00;;;18.70;99.90;18.00;97571.00;;;;5033586;28;20233;-74
2022/08/25 00:07:56;;;;;;;0.00;0.00;;;18.70;99.90;18.00;97569.00;;;;5032132;28;20231;-74
2022/08/25 00:10:25;;;;;;;0.00;0.00;;;18.70;99.90;18.00;97566.00;;;;5022497;28;20207;-74
2022/08/25 00:12:54;;;;;;;0.00;0.00;;;18.70;99.90;18.00;97560.00;;;;5034358;28;20223;-74
2022/08/25 00:15:23;;;;;;;0.00;0.00;;;18.80;99.90;18.00;97500.00;;;;5033023;28;20199;-73
2022/08/25 00:17:51;;;;;;;0.00;0.00;;;18.80;99.90;17.90;97565.00;;;;5036288;28;20278;-74
2022/08/25 00:20:19;;;;;;;0.00;0.00;;;18.70;99.90;17.80;97578.00;;;;5033721;28;20203;-72
2022/08/25 00:22:48;;;;;;;0.00;0.00;;;18.60;99.90;17.80;97561.00;;;;5033267;28;20218;-72
2022/08/25 00:25:17;;;;;;;0.00;0.00;;;18.60;99.90;17.80;97560.00;;;;5033661;28;20199;-72
2022/08/25 00:27:46;;;;;;;0.00;0.00;;;18.50;99.90;17.80;97563.00;;;;5033889;28;20222;-73
2022/08/25 00:30:16;;;;;;;0.00;0.00;;;18.60;99.90;17.80;97567.00;;;;5034014;28;20240;-72
2022/08/25 00:32:47;;;;;;;0.00;0.00;;;18.60;99.90;17.80;97571.00;;;;5033852;28;20211;-72
2022/08/25 00:35:25;;;;;;;0.00;0.00;;;18.50;99.90;17.60;97573.00;;;;5033968;28;20632;-73
2022/08/25 00:37:54;;;;;;;0.00;0.00;;;18.40;99.90;17.70;97577.00;;;;5033453;28;20268;-73
2022/08/25 00:40:24;;;;;;;0.00;0.00;;;18.50;99.90;17.70;97629.00;;;;5033517;28;20188;-72
2022/08/25 00:42:53;;;;;;;0.00;0.00;;;18.50;99.90;17.50;97626.00;;;;5045058;28;20228;-73
2022/08/25 00:45:23;;;;;;;0.00;0.00;;;18.50;99.90;17.60;97564.00;;;;5037968;28;20191;-73
2022/08/25 00:47:52;;;;;;;0.00;0.00;;;18.50;99.90;17.50;97568.00;;;;5036810;28;20211;-74
2022/08/25 00:50:22;;;;;;;0.00;0.00;;;18.40;99.90;17.40;97565.00;;;;5033752;28;20312;-74
2022/08/25 00:52:57;;;;;;;0.00;0.00;;;18.20;99.90;17.50;97565.00;;;;5031915;28;20223;-74
2022/08/25 00:55:31;;;;;;;0.00;0.00;;;18.30;99.90;17.50;97561.00;;;;5033279;28;20199;-74
2022/08/25 00:58:06;;;;;;;0.00;0.00;;;18.30;99.90;17.40;97559.00;;;;5033399;28;20217;-74
2022/08/25 01:00:41;;;;;;;0.00;0.00;;;18.20;99.90;17.50;97557.00;;;;5033026;28;20187;-74
2022/08/25 01:03:10;;;;;;;0.00;0.00;;;18.30;99.90;17.40;97609.00;;;;5030653;28;20218;-73
2022/08/25 01:05:41;;;;;;;0.00;0.00;;;18.20;99.90;17.40;97562.00;;;;5032421;28;20198;-74
2022/08/25 01:08:11;;;;;;;0.00;0.00;;;18.20;99.90;17.40;97559.00;;;;5037874;28;20719;-74
2022/08/25 01:10:45;;;;;;;0.00;0.00;;;18.20;99.90;17.40;97550.00;;;;5037808;28;20273;-75
2022/08/25 01:13:19;;;;;;;0.00;0.00;;;18.20;99.90;17.40;97548.00;;;;5039978;28;20222;-73
2022/08/25 01:15:54;;;;;;;0.00;0.00;;;18.10;99.90;17.30;97546.00;;;;5032630;28;20584;-75
2022/08/25 01:18:27;;;;;;;0.00;0.00;;;18.00;99.90;17.30;97544.00;;;;5032826;28;20196;-72
2022/08/25 01:20:58;;;;;;;0.00;0.00;;;18.00;99.90;17.30;97543.00;;;;5033434;28;20210;-73
2022/08/25 01:23:27;;;;;;;0.00;0.00;;;18.00;99.90;17.20;97544.00;;;;5033890;28;20211;-73
2022/08/25 01:26:03;;;;;;;0.00;0.00;;;18.00;99.90;17.10;97541.00;;;;5032424;28;20207;-73
2022/08/25 01:28:31;;;;;;;0.00;0.00;;;17.90;99.90;17.00;97533.00;;;;5032645;28;20229;-73
2022/08/25 01:31:00;;;;;;;0.00;0.00;;;17.80;99.90;17.10;97541.00;;;;5032748;28;20599;-73
2022/08/25 01:33:28;;;;;;;0.00;0.00;;;17.90;99.90;17.10;97545.00;;;;5019845;28;20216;-74
2022/08/25 01:35:58;;;;;;;0.00;0.00;;;17.80;99.90;17.00;97534.00;;;;5029484;28;20201;-73
2022/08/25 01:38:26;;;;;;;0.00;0.00;;;17.80;99.90;17.10;97537.00;;;;5033126;28;20198;-73
2022/08/25 01:40:54;;;;;;;0.00;0.00;;;17.80;99.90;17.10;97541.00;;;;5033275;28;20187;-73
2022/08/25 01:43:36;;;;;;;0.00;0.00;;;17.80;99.90;16.90;97534.00;;;;5032629;28;20229;-73
2022/08/25 01:46:05;;;;;;;0.00;0.00;;;17.60;99.90;16.90;97579.00;;;;5033340;28;20725;-73
2022/08/25 01:48:33;;;;;;;0.00;0.00;;;17.60;99.90;16.80;97585.00;;;;5052672;28;20219;-73
2022/08/25 01:51:02;;;;;;;0.00;0.00;;;17.50;99.90;16.80;97537.00;;;;5045446;28;20191;-73
2022/08/25 01:53:31;;;;;;;0.00;0.00;;;17.50;99.90;16.90;97503.00;;;;5045465;28;20266;-73
2022/08/25 01:56:09;;;;;;;0.00;0.00;;;17.60;99.90;16.90;97531.00;;;;5043686;28;20225;-73
2022/08/25 01:58:40;;;;;;;0.00;0.00;;;17.60;99.90;16.90;97530.00;;;;5034881;28;20261;-73
2022/08/25 02:01:14;;;;;;;0.00;0.00;;;17.60;99.90;16.90;97503.00;;;;5038560;28;20191;-73
2022/08/25 02:03:47;;;;;;;0.00;0.00;;;17.60;99.90;16.80;97569.00;;;;5042752;28;20278;-73
2022/08/25 02:06:25;;;;;;;0.00;0.00;;;17.60;99.90;16.80;97555.00;;;;5046907;28;20202;-73
2022/08/25 02:09:00;;;;;;;0.00;0.00;;;17.50;99.90;16.80;97525.00;;;;5046219;28;20215;-74
2022/08/25 02:11:29;;;;;;;0.00;0.00;;;17.50;99.90;16.70;97521.00;;;;5045733;28;20202;-73
2022/08/25 02:13:57;;;;;;;0.00;0.00;;;17.50;99.90;16.60;97518.00;;;;5026868;28;20221;-73
2022/08/25 02:16:29;;;;;;;0.00;0.00;;;17.40;99.90;16.70;97516.00;;;;5020142;28;20195;-73
2022/08/25 02:18:58;;;;;;;0.00;0.00;;;17.40;99.90;16.70;97548.00;;;;5012994;28;20192;-72
2022/08/25 02:21:28;;;;;;;0.00;0.00;;;17.40;99.90;16.50;97543.00;;;;5022823;28;20195;-72
2022/08/25 02:23:56;;;;;;;0.00;0.00;;;17.20;99.90;16.40;97503.00;;;;5031937;28;20210;-73
2022/08/25 02:26:25;;;;;;;0.00;0.00;;;17.20;99.90;16.40;97516.00;;;;5031920;28;20195;-73
2022/08/25 02:28:53;;;;;;;0.00;0.00;;;17.10;99.90;16.30;97511.00;;;;5031369;28;20225;-73
2022/08/25 02:31:25;;;;;;;0.00;0.00;;;17.00;99.90;16.40;97510.00;;;;5031619;28;20199;-73
2022/08/25 02:33:54;;;;;;;0.00;0.00;;;17.00;99.90;16.30;97525.00;;;;5030487;28;20218;-73
2022/08/25 02:36:22;;;;;;;0.00;0.00;;;17.00;99.90;16.30;97559.00;;;;5012306;28;20196;-73
2022/08/25 02:38:52;;;;;;;0.00;0.00;;;17.10;99.90;16.50;97509.00;;;;5011436;28;20199;-73
2022/08/25 02:41:24;;;;;;;0.00;0.00;;;17.20;99.90;16.60;97501.00;;;;5030700;28;20309;-73
2022/08/25 02:43:59;;;;;;;0.00;0.00;;;17.30;99.90;16.60;97510.00;;;;5023255;28;20222;-73
2022/08/25 02:46:27;;;;;;;0.00;0.00;;;17.30;99.90;16.60;97501.00;;;;5030934;28;20225;-73
2022/08/25 02:48:55;;;;;;;0.00;0.00;;;17.40;99.90;16.50;97494.00;;;;5030774;28;20606;-73
2022/08/25 02:51:27;;;;;;;0.00;0.00;;;17.30;99.90;16.50;97504.00;;;;5031330;28;20206;-74
2022/08/25 02:53:57;;;;;;;0.00;0.00;;;17.30;99.90;16.50;97501.00;;;;5012257;28;20691;-74
2022/08/25 02:56:28;;;;;;;0.00;0.00;;;17.30;99.90;16.50;97504.00;;;;5029770;28;20551;-73
2022/08/25 02:58:56;;;;;;;0.00;0.00;;;17.30;99.90;16.50;97502.00;;;;5031305;28;20205;-73
2022/08/25 03:01:25;;;;;;;0.00;0.00;;;17.40;99.90;16.50;97502.00;;;;5032805;28;20191;-73
2022/08/25 03:03:57;;;;;;;0.00;0.00;;;17.40;99.90;16.50;97477.00;;;;5016744;28;20223;-73
2022/08/25 03:06:26;;;;;;;0.00;0.00;;;17.30;99.90;16.30;97466.00;;;;5029694;28;20200;-73
2022/08/25 03:08:56;;;;;;;0.00;0.00;;;17.10;99.90;16.30;97495.00;;;;5015391;28;20251;-72
2022/08/25 03:11:25;;;;;;;0.00;0.00;;;17.10;99.90;16.20;97504.00;;;;5022769;28;20196;-72
2022/08/25 03:13:53;;;;;;;0.00;0.00;;;17.00;99.90;16.10;97509.00;;;;5016177;28;20295;-72
2022/08/25 03:16:22;;;;;;;0.00;0.00;;;16.90;99.90;16.00;97503.00;;;;5034786;28;20214;-72
2022/08/25 03:18:54;;;;;;;0.00;0.00;;;16.70;99.90;16.00;97495.00;;;;5034126;28;20214;-72
2022/08/25 03:21:23;;;;;;;0.00;0.00;;;16.70;99.90;16.00;97496.00;;;;5034435;28;20633;-72
2022/08/25 03:23:51;;;;;;;0.00;0.00;;;16.80;99.90;16.00;97493.00;;;;5034597;28;20875;-73
2022/08/25 03:29:07;;;;;;;0.00;0.00;;;16.70;99.90;16.10;97493.00;;;;5034234;28;20215;-73
2022/08/25 03:31:36;;;;;;;0.00;0.00;;;16.90;99.90;16.10;97505.00;;;;5035060;28;20195;-73
2022/08/25 03:34:04;;;;;;;0.00;0.00;;;16.90;99.90;16.00;97509.00;;;;5034493;28;20218;-73
2022/08/25 03:36:32;;;;;;;0.00;0.00;;;16.80;99.90;16.00;97489.00;;;;5034230;28;20214;-72
2022/08/25 03:39:00;;;;;;;0.00;0.00;;;16.90;99.90;16.10;97492.00;;;;5034184;28;20206;-73
2022/08/25 03:41:32;;;;;;;0.10;0.10;;;17.00;99.90;16.20;97486.00;;;;5034966;28;20241;-73
2022/08/25 03:44:02;;;;;;;0.00;0.00;;;17.00;99.90;16.00;97483.00;;;;5033868;28;20705;-73
2022/08/25 03:46:33;;;;;;;0.00;0.00;;;16.90;99.90;16.00;97480.00;;;;5033734;28;20198;-73
2022/08/25 03:49:03;;;;;;;0.00;0.00;;;16.90;99.90;16.00;97489.00;;;;5025973;28;20213;-73
2022/08/25 03:51:35;;;;;;;0.00;0.00;;;16.90;99.90;16.00;97448.00;;;;5034415;28;20205;-72
2022/08/25 03:54:05;;;;;;;0.00;0.00;;;16.90;99.90;15.80;97477.00;;;;5033644;28;20215;-73
2022/08/25 03:56:34;;;;;;;0.00;0.00;;;16.80;99.90;15.90;97484.00;;;;5036272;28;20658;-73
2022/08/25 03:59:03;;;;;;;0.00;0.00;;;16.70;99.90;15.80;97487.00;;;;5034657;28;20202;-73
2022/08/25 04:01:31;;;;;;;0.00;0.00;;;16.70;99.90;15.80;97480.00;;;;5033291;28;20693;-73
2022/08/25 04:03:59;;;;;;;0.00;0.00;;;16.70;99.90;15.90;97509.00;;;;5033997;28;20214;-73
2022/08/25 04:06:27;;;;;;;0.00;0.00;;;16.70;99.90;15.70;97494.00;;;;5034131;28;20226;-73
2022/08/25 04:08:57;;;;;;;0.00;0.00;;;16.60;99.90;15.60;97491.00;;;;5034176;28;20558;-74
2022/08/25 04:11:28;;;;;;;0.00;0.00;;;16.50;99.90;15.60;97455.00;;;;5033850;28;20209;-74
2022/08/25 04:14:01;;;;;;;0.00;0.00;;;16.40;99.90;15.60;97474.00;;;;5032665;28;20211;-75
2022/08/25 04:16:32;;;;;;;0.00;0.00;;;16.40;99.90;15.60;97487.00;;;;5033746;28;20640;-72
2022/08/25 04:19:04;;;;;;;0.00;0.00;;;16.40;99.90;15.60;97494.00;;;;5032420;28;20199;-72
2022/08/25 04:21:33;;;;;;;0.05;0.05;;;16.30;99.90;15.60;97510.00;;;;5033620;28;20678;-72
2022/08/25 04:24:02;;;;;;;0.00;0.00;;;16.40;99.90;15.60;97505.00;;;;5033872;28;20583;-74
2022/08/25 04:26:36;;;;;;;0.00;0.00;;;16.30;99.90;15.50;97504.00;;;;5032410;28;20201;-73
2022/08/25 04:29:09;;;;;;;0.00;0.00;;;16.30;99.90;15.50;97522.00;;;;5033740;28;20549;-73
2022/08/25 04:31:41;;;;;;;0.00;0.00;;;16.30;99.90;15.50;97487.00;;;;5034422;28;20206;-73
2022/08/25 04:34:10;;;;;;;0.00;0.00;;;16.30;99.90;15.50;97503.00;;;;5033445;28;20242;-73
2022/08/25 04:36:59;;;;;;;0.00;0.00;;;16.30;99.90;15.50;97505.00;;;;5033704;28;20191;-73
2022/08/25 04:39:28;;;;;;;0.00;0.00;;;16.30;99.90;15.60;97501.00;;;;5033201;28;20199;-70
2022/08/25 04:41:56;;;;;;;0.00;0.00;;;16.30;99.90;15.70;97512.00;;;;5033741;28;20210;-71
2022/08/25 04:44:26;;;;;;;0.00;0.00;;;16.40;99.90;15.50;97498.00;;;;5037349;28;20214;-72
2022/08/25 04:46:54;;;;;;;0.00;0.00;;;16.30;99.90;15.40;97501.00;;;;5040979;28;20261;-70
2022/08/25 04:49:22;;;;;;;0.00;0.00;;;16.20;99.90;15.40;97509.00;;;;5040138;28;20203;-72
2022/08/25 04:51:50;;;;;;;0.00;0.00;;;16.00;99.90;15.20;97503.00;;;;5041745;28;20205;-72
2022/08/25 04:54:20;;;;;;;0.00;0.00;;;15.90;99.90;15.20;97497.00;;;;5040003;28;20588;-72
2022/08/25 04:56:51;;;;;;;0.00;0.00;;;16.00;99.90;15.20;97471.00;;;;5041253;28;20203;-71
2022/08/25 04:59:27;;;;;;;0.08;0.08;;;16.00;99.90;15.30;97489.00;;;;5041633;28;20677;-70
2022/08/25 05:02:00;;;;;;;0.00;0.00;;;16.10;99.90;15.40;97488.00;;;;5040194;28;20202;-70
2022/08/25 05:04:31;;;;;;;0.00;0.00;;;16.10;99.90;15.50;97495.00;;;;5039980;28;20224;-70
2022/08/25 05:07:00;;;;;;;0.00;0.00;;;16.20;99.90;15.60;97476.00;;;;5040425;28;20280;-70
2022/08/25 05:09:28;;;;;;;0.00;0.00;;;16.30;99.90;15.50;97489.00;;;;5043140;28;20245;-69
2022/08/25 05:12:00;;;;;;;0.00;0.00;;;16.30;99.90;15.60;97493.00;;;;5037907;28;20203;-69
2022/08/25 05:14:31;;;;;;;0.00;0.00;;;16.30;99.90;15.70;97485.00;;;;5040300;28;20215;-71
2022/08/25 05:17:00;;;;;;;0.00;0.00;;;16.40;99.90;15.70;97491.00;;;;5040875;28;20206;-70
2022/08/25 05:19:28;;;;;;;0.00;0.00;;;16.40;99.90;15.70;97518.00;;;;5039872;28;20202;-70
2022/08/25 05:21:56;;;;;;;0.00;0.00;;;16.40;99.90;15.70;97495.00;;;;5041250;28;20202;-70
2022/08/25 05:24:25;;;;;;;0.00;0.00;;;16.40;99.90;15.80;97495.00;;;;5039012;28;20219;-70
2022/08/25 05:26:53;;;;;;;0.00;0.00;;;16.40;99.90;15.80;97485.00;;;;5039368;28;20306;-69
2022/08/25 05:29:22;;;;;;;0.00;0.00;;;16.50;99.90;15.90;97480.00;;;;5041263;28;20195;-69
2022/08/25 05:31:52;;;;;;;0.00;0.00;;;16.60;99.90;15.80;97489.00;;;;5040990;28;20229;-70
2022/08/25 05:34:21;;;;;;;0.00;0.00;;;16.50;99.90;15.70;97486.00;;;;5041020;28;20224;-70
2022/08/25 05:36:50;;;;;;;0.00;0.00;;;16.50;99.90;15.80;97514.00;;;;5039166;28;20207;-71
2022/08/25 05:39:18;;;;;;;0.00;0.00;;;16.50;99.90;15.90;97494.00;;;;5030173;28;20752;-71
2022/08/25 05:41:46;;;;;;;0.00;0.00;;;16.60;99.90;16.00;97520.00;;;;5030154;28;20502;-70
2022/08/25 05:44:15;;;;;;;0.00;0.00;;;16.60;99.90;16.00;97533.00;;;;5034582;28;20222;-71
2022/08/25 05:46:51;;;;;;;0.00;0.00;;;16.70;99.90;16.10;97495.00;;;;5041916;28;20191;-71
2022/08/25 05:49:19;;;;;;;0.00;0.00;;;16.80;99.90;16.20;97440.00;;;;5040307;28;20205;-69
2022/08/25 05:51:47;;;;;;;0.00;0.00;;;16.90;99.90;16.30;97505.00;;;;5038115;28;20236;-69
2022/08/25 05:54:16;;;;;;;0.00;0.00;;;16.90;99.90;16.30;97491.00;;;;5037418;28;20301;-72
2022/08/25 05:56:45;;;;;;;0.00;0.00;;;17.00;99.90;16.30;97495.00;;;;5039750;28;20210;-69
2022/08/25 05:59:13;;;;;;;0.00;0.00;;;17.00;99.90;16.40;97501.00;;;;5038994;28;20206;-70
2022/08/25 06:04:28;;;;;;;0.00;0.00;;;17.00;99.90;16.40;97502.00;;;;5039110;28;20226;-70
2022/08/25 06:06:56;;;;;;;0.00;0.00;;;17.00;99.90;16.40;97511.00;;;;5038426;28;20594;-71
2022/08/25 06:09:25;;;;;;;0.00;0.00;;;17.00;99.90;16.40;97510.00;;;;5039258;28;20537;-70
2022/08/25 06:11:53;;;;;;;0.00;0.00;;;17.10;99.90;16.40;97497.00;;;;5040436;28;20238;-71
2022/08/25 06:14:23;;;;;;;0.00;0.00;;;17.10;99.90;16.40;97470.00;;;;5039647;28;20219;-71
2022/08/25 06:16:52;;;;;;;0.00;0.00;;;17.00;99.90;16.40;97497.00;;;;5039675;28;20206;-71
2022/08/25 06:19:22;;;;;;;0.00;0.00;;;17.00;99.90;16.40;97503.00;;;;5041868;28;20232;-70
2022/08/25 06:21:56;;;;;;;0.00;0.00;;;17.00;99.90;16.40;97484.00;;;;5041924;28;20229;-70
2022/08/25 06:24:26;;;;;;;0.00;0.00;;;17.00;99.90;16.40;97480.00;;;;5039633;28;20218;-70
2022/08/25 06:26:56;;;;;;;0.00;0.00;;;17.10;99.90;16.50;97487.00;;;;5040268;28;20214;-70
2022/08/25 06:29:24;;;;;;;0.00;0.00;;;17.10;99.90;16.60;97488.00;;;;5038165;28;20208;-70
2022/08/25 06:31:53;;;;;;;0.00;0.00;;;17.30;99.90;16.70;97488.00;;;;5039461;28;20296;-70
2022/08/25 06:34:21;;;;;;;0.00;0.00;;;17.40;99.90;16.80;97481.00;;;;5038788;28;20265;-71
2022/08/25 06:36:51;;;;;;;0.00;0.00;;;17.40;99.90;16.90;97484.00;;;;5036500;28;20234;-71
2022/08/25 06:39:23;;;;;;;0.00;0.00;;;17.50;99.90;17.00;97486.00;;;;5042092;28;20225;-69
2022/08/25 06:41:52;;;;;;;0.00;0.00;;;17.60;99.90;17.10;97478.00;;;;5042401;28;20210;-70
2022/08/25 06:44:21;;;;;;;0.00;0.00;;;17.80;99.90;17.20;97485.00;;;;5042787;28;20218;-70
2022/08/25 06:46:49;;;;;;;0.00;0.00;;;17.80;99.90;226.50;165796.00;;;;5039163;28;20202;-70
2022/08/25 06:49:18;;;;;;;0.00;0.00;;;17.90;99.90;226.50;231333.00;;;;5042197;28;20565;-70
2022/08/25 06:51:46;;;;;;;0.00;0.00;;;18.10;99.90;226.50;231333.00;;;;5042226;28;20227;-70
2022/08/25 06:54:14;;;;;;;0.00;0.00;;;18.10;99.90;226.50;231333.00;;;;5042741;28;20219;-70
2022/08/25 06:56:43;;;;;;;0.00;0.00;;;18.20;99.90;17.70;97186.00;;;;5040795;28;20641;-70
2022/08/25 06:59:11;;;;;;;0.00;0.00;;;18.30;99.90;17.80;97498.00;;;;5039069;28;20198;-70
2022/08/25 07:01:39;;;;;;;0.00;0.00;;;18.40;99.90;17.90;97483.00;;;;5041750;28;20198;-70
2022/08/25 07:04:08;;;;;;;0.00;0.00;;;18.50;99.90;18.00;97480.00;;;;5040152;28;20229;-70
2022/08/25 07:06:40;;;;;;;0.00;0.00;;;18.60;99.90;18.20;97485.00;;;;5041430;28;20562;-70
2022/08/25 07:09:10;;;;;;;0.00;0.00;;;18.70;99.90;18.20;97526.00;;;;5040837;28;20195;-69
2022/08/25 07:11:39;;;;;;;0.00;0.00;;;18.80;99.90;18.30;97495.00;;;;5039873;28;20701;-70
2022/08/25 07:14:11;;;;;;;0.00;0.00;;;18.80;99.90;18.40;97487.00;;;;5039385;28;20222;-71
2022/08/25 07:16:41;;;;;;;0.00;0.00;;;19.00;99.90;18.50;97487.00;;;;5039192;28;20205;-71
2022/08/25 07:19:19;;;;;;;0.00;0.00;;;19.10;99.90;18.60;97541.00;;;;5037483;28;20213;-71
2022/08/25 07:21:52;;;;;;;0.00;0.00;;;19.10;99.90;18.60;97498.00;;;;5040429;28;20242;-72
2022/08/25 07:24:22;;;;;;;0.00;0.00;;;19.20;99.90;18.80;97496.00;;;;5041339;28;20237;-72
2022/08/25 07:26:51;;;;;;;0.00;0.00;;;19.30;99.90;18.80;97531.00;;;;5037754;28;21056;-71
2022/08/25 07:29:23;;;;;;;0.00;0.00;;;19.40;99.90;18.90;97512.00;;;;5041679;28;20209;-71
2022/08/25 07:32:00;;;;;;;0.00;0.00;;;19.50;99.90;19.10;97520.00;;;;5038736;28;20226;-71
2022/08/25 07:37:21;;;;;;;0.00;0.00;;;19.80;99.90;19.50;97503.00;;;;5047360;28;20199;-72
2022/08/25 07:40:12;;;;;;;0.00;0.00;;;20.00;99.90;19.70;97522.00;;;;5049389;28;20221;-71
2022/08/25 07:42:41;;;;;;;0.00;0.00;;;20.20;99.90;19.60;97459.00;;;;5044914;28;20203;-71
2022/08/25 07:45:13;;;;;;;0.00;0.00;;;20.20;99.90;19.80;97482.00;;;;5038268;28;20213;-71
2022/08/25 07:47:50;;;;;;;0.00;0.00;;;20.30;99.90;19.70;97478.00;;;;5022486;28;20194;-72
2022/08/25 07:50:19;;;;;;;0.00;0.00;;;20.30;99.90;19.80;97475.00;;;;5029496;28;20221;-72
2022/08/25 07:52:47;;;;;;;0.00;0.00;;;20.40;99.90;20.10;97473.00;;;;5029559;28;20226;-72
2022/08/25 07:55:19;;;;;;;0.00;0.00;;;20.60;99.90;20.30;97492.00;;;;5030443;28;20187;-72
2022/08/25 07:57:47;;;;;;;0.00;0.00;;;20.80;99.90;20.40;97468.00;;;;5030180;28;20206;-72
2022/08/25 08:00:26;;;;;;;0.00;0.00;;;20.80;99.90;20.60;97461.00;;;;5030652;28;20190;-72
2022/08/25 08:02:56;;;;;;;0.00;0.00;;;21.00;99.90;20.80;97475.00;;;;5030073;28;20234;-72
2022/08/25 08:05:26;;;;;;;0.00;0.00;;;21.20;99.90;21.00;97474.00;;;;5035043;28;20223;-72
2022/08/25 08:07:55;;;;;;;0.00;0.00;;;21.40;99.90;21.10;97472.00;;;;5035559;28;20199;-72
2022/08/25 08:10:24;;;;;;;0.00;0.00;;;21.50;99.90;21.20;97468.00;;;;5039164;28;20214;-72
2022/08/25 08:13:12;;;;;;;0.00;0.00;;;21.60;99.90;21.30;97466.00;;;;5053194;28;20688;-72
2022/08/25 08:15:47;;;;;;;0.00;0.00;;;21.80;99.90;21.50;97463.00;;;;5037319;28;20222;-72
2022/08/25 08:18:16;;;;;;;0.00;0.00;;;21.90;99.90;21.70;97473.00;;;;5038439;28;20286;-72
2022/08/25 08:20:47;;;;;;;0.00;0.00;;;22.10;99.90;21.80;97466.00;;;;5038201;28;20572;-72
2022/08/25 08:23:17;;;;;;;0.00;0.00;;;22.20;99.90;21.80;97426.00;;;;5037463;28;20256;-72
2022/08/25 08:25:45;;;;;;;0.00;0.00;;;22.20;99.90;21.80;97481.00;;;;5036559;28;20207;-71
2022/08/25 08:28:13;;;;;;;0.00;0.00;;;22.20;99.90;22.00;97477.00;;;;5037711;28;20230;-71
2022/08/25 08:30:41;;;;;;;0.00;0.00;;;22.40;99.90;22.10;97493.00;;;;5039070;28;20690;-72
2022/08/25 08:33:25;;;;;;;0.00;0.00;;;22.50;99.90;22.30;97486.00;;;;5040292;28;20233;-74
2022/08/25 08:36:00;;;;;;;0.00;0.00;;;22.70;99.90;22.50;97482.00;;;;5041633;28;20952;-74
2022/08/25 08:38:33;;;;;;;0.00;0.00;;;22.90;99.90;22.60;97483.00;;;;5040642;28;20191;-73
2022/08/25 08:44:52;;;;;;;0.00;0.00;;;23.20;99.90;23.10;97420.00;;;;5038349;28;20214;-74
2022/08/25 08:47:39;;;;;;;0.00;0.00;;;23.40;99.90;23.20;97442.00;;;;5033349;28;20929;-74
2022/08/25 08:50:34;;;;;;;0.00;0.00;;;23.60;99.90;23.30;97452.00;;;;5037095;28;20349;-74
2022/08/25 08:53:13;;;;;;;0.00;0.00;;;23.80;99.90;23.50;97426.00;;;;5041241;28;20729;-74
2022/08/25 08:55:45;;;;;;;0.00;0.00;;;23.90;99.90;23.50;97424.00;;;;5037836;28;20203;-74
2022/08/25 08:58:24;;;;;;;0.00;0.00;;;24.00;99.90;23.70;97412.00;;;;5039652;28;20217;-74
2022/08/25 09:00:57;;;;;;;0.00;0.00;;;24.20;99.90;23.80;97408.00;;;;5036731;28;20662;-74
2022/08/25 09:03:35;;;;;;;0.00;0.00;;;24.30;99.90;24.00;97423.00;;;;5040782;28;20210;-74
2022/08/25 09:06:17;;;;;;;0.00;0.00;;;24.40;99.90;24.20;97418.00;;;;5042145;28;20202;-74
2022/08/25 09:08:45;;;;;;;0.00;0.00;;;24.60;99.90;24.40;97413.00;;;;5045287;28;20191;-74
2022/08/25 09:11:28;;;;;;;0.00;0.00;;;24.80;99.90;24.60;97409.00;;;;5047976;28;20547;-75
2022/08/25 09:14:21;;;;;;;0.00;0.00;;;25.10;99.90;24.80;97405.00;;;;5041752;28;20235;-74
2022/08/25 09:17:05;;;;;;;0.00;0.00;;;25.20;99.90;25.00;97414.00;;;;5040318;28;20241;-74
2022/08/25 09:20:03;;;;;;;0.00;0.00;;;25.40;99.90;25.10;97418.00;;;;5039398;28;20273;-74
2022/08/25 09:23:02;;;;;;;0.00;0.00;;;25.50;99.90;24.90;97413.00;;;;5043980;28;20231;-74
2022/08/25 09:25:45;;;;;;;0.00;0.00;;;25.40;99.90;25.10;97421.00;;;;5038850;28;20209;-74
2022/08/25 09:28:28;;;;;;;0.00;0.00;;;25.50;99.90;25.20;97415.00;;;;5051534;28;20668;-74
2022/08/25 09:31:01;;;;;;;0.00;0.00;;;25.70;99.90;25.40;97428.00;;;;5054966;28;20198;-74
2022/08/25 09:33:33;;;;;;;0.00;0.00;;;25.80;99.90;25.40;97421.00;;;;5047556;28;20253;-74
2022/08/25 09:36:05;;;;;;;0.00;0.00;;;25.90;99.90;25.40;97422.00;;;;5046958;28;20217;-75
2022/08/25 09:38:37;;;;;;;0.00;0.00;;;25.90;99.90;25.40;97424.00;;;;5063079;28;20190;-74
2022/08/25 09:41:07;;;;;;;0.00;0.00;;;25.90;99.90;25.40;97418.00;;;;5059867;28;20218;-74
2022/08/25 09:43:40;;;;;;;0.00;0.00;;;25.90;99.90;25.50;97404.00;;;;5051480;28;20225;-74
2022/08/25 09:46:15;;;;;;;0.00;0.00;;;26.00;99.90;25.70;97414.00;;;;5042871;28;20286;-74
2022/08/25 09:48:52;;;;;;;0.00;0.00;;;26.10;99.90;25.90;97411.00;;;;5042000;28;20715;-74
2022/08/25 09:51:28;;;;;;;0.00;0.00;;;26.20;99.90;26.10;97405.00;;;;5042440;28;20198;-74
2022/08/25 09:54:23;;;;;;;0.00;0.00;;;26.40;99.90;26.30;97406.00;;;;5044375;28;20222;-72
2022/08/25 09:57:04;;;;;;;0.00;0.00;;;26.50;99.90;26.30;97395.00;;;;5041874;28;20195;-73
2022/08/25 09:59:37;;;;;;;0.00;0.00;;;26.70;99.90;26.30;97396.00;;;;5042757;28;20277;-74
2022/08/25 10:02:24;;;;;;;0.00;0.00;;;26.70;99.90;26.50;97399.00;;;;5039515;28;20228;-73
2022/08/25 10:04:53;;;;;;;0.00;0.00;;;26.80;99.90;26.60;97368.00;;;;5040623;28;20206;-74
2022/08/25 10:07:27;;;;;;;0.00;0.00;;;26.90;99.90;26.50;97386.00;;;;5037700;28;20198;-74
2022/08/25 10:09:59;;;;;;;0.00;0.00;;;26.90;99.90;26.70;97389.00;;;;5036508;28;20202;-74
2022/08/25 10:12:36;;;;;;;0.00;0.00;;;27.00;99.90;26.60;97386.00;;;;5036924;28;20701;-74
2022/08/25 10:15:18;;;;;;;0.00;0.00;;;27.00;99.90;26.80;97388.00;;;;5037042;28;20202;-73
2022/08/25 10:18:20;;;;;;;0.00;0.00;;;27.10;99.90;27.20;97399.00;;;;5037622;28;20202;-74
2022/08/25 10:21:05;;;;;;;0.00;0.00;;;27.30;99.90;27.20;97388.00;;;;5037778;28;20214;-73
2022/08/25 10:23:40;;;;;;;0.00;0.00;;;27.40;99.90;27.30;97394.00;;;;5038877;28;20242;-75
2022/08/25 10:26:23;;;;;;;0.00;0.00;;;27.50;99.90;27.50;97384.00;;;;5040266;28;20842;-73
2022/08/25 10:29:10;;;;;;;0.00;0.00;;;27.70;99.90;27.60;97378.00;;;;5037584;28;20230;-74
2022/08/25 10:31:50;;;;;;;0.00;0.00;;;27.80;99.90;28.00;97383.00;;;;5040664;28;20202;-74
2022/08/25 10:34:40;;;;;;;0.00;0.00;;;28.10;99.90;28.30;97378.00;;;;5041222;28;20234;-73
2022/08/25 10:37:28;;;;;;;0.00;0.00;;;28.30;99.90;28.50;97383.00;;;;5041225;28;20253;-73
2022/08/25 10:40:13;;;;;;;0.00;0.00;;;28.60;99.90;28.70;97374.00;;;;5040548;28;20245;-73
2022/08/25 10:43:05;;;;;;;0.00;0.00;;;28.70;99.90;28.80;97369.00;;;;5038727;28;20221;-73
2022/08/25 10:45:44;;;;;;;0.00;0.00;;;28.80;99.90;28.60;97364.00;;;;5040051;28;20226;-72
2022/08/25 10:48:51;;;;;;;0.00;0.00;;;28.80;99.90;28.70;97371.00;;;;5042558;28;20611;-73
2022/08/25 10:51:40;;;;;;;0.00;0.00;;;28.80;99.90;29.00;97374.00;;;;5039447;28;20221;-73
2022/08/25 10:54:31;;;;;;;0.00;0.00;;;29.00;99.90;28.90;97358.00;;;;5040473;28;20231;-73
2022/08/25 10:57:17;;;;;;;0.00;0.00;;;29.00;99.90;29.00;97363.00;;;;5040085;28;20206;-73
2022/08/25 11:00:00;;;;;;;0.00;0.00;;;29.10;99.90;29.40;97363.00;;;;5039617;28;20203;-73
2022/08/25 11:03:05;;;;;;;0.00;0.00;;;29.30;99.90;29.30;97356.00;;;;5036721;28;20222;-73
2022/08/25 11:05:40;;;;;;;0.00;0.00;;;29.40;99.90;29.60;97359.00;;;;5040172;28;20259;-73
2022/08/25 11:08:16;;;;;;;0.00;0.00;;;29.50;99.90;29.50;97355.00;;;;5039352;28;20202;-73
2022/08/25 11:10:50;;;;;;;0.00;0.00;;;29.50;99.90;29.40;97355.00;;;;5039315;28;20199;-73
2022/08/25 11:13:31;;;;;;;0.00;0.00;;;29.50;99.90;29.30;97353.00;;;;5039884;28;20219;-74
2022/08/25 11:16:11;;;;;;;0.00;0.00;;;29.40;99.90;29.20;97353.00;;;;5039231;28;20205;-74
2022/08/25 11:18:55;;;;;;;0.00;0.00;;;29.30;99.90;29.30;97354.00;;;;5039194;28;20202;-74
2022/08/25 11:21:38;;;;;;;0.00;0.00;;;29.30;99.90;29.30;97361.00;;;;5040484;28;20209;-73
2022/08/25 11:24:22;;;;;;;0.00;0.00;;;29.40;99.90;29.20;97351.00;;;;5040483;28;20223;-74
2022/08/25 11:26:56;;;;;;;0.00;0.00;;;29.40;99.90;29.10;97320.00;;;;5044464;28;20203;-74
2022/08/25 11:29:32;;;;;;;0.00;0.00;;;29.30;99.90;29.00;97349.00;;;;5042760;28;20207;-72
2022/08/25 11:32:02;;;;;;;0.00;0.00;;;29.20;99.90;29.40;97354.00;;;;5043366;28;20285;-73